createdAt,value
2018-06-23T00:00:03.432Z,12.72
2018-06-23T00:01:03.414Z,12.85
2018-06-23T00:02:03.357Z,12.87
2018-06-23T00:03:03.311Z,12.85
2018-06-23T00:04:03.285Z,12.79
2018-06-23T00:05:03.232Z,12.83
2018-06-23T00:06:03.214Z,12.83
2018-06-23T00:07:03.145Z,12.87
2018-06-23T00:08:03.112Z,12.86
2018-06-23T00:09:03.093Z,12.87
2018-06-23T00:10:03.026Z,12.83
2018-06-23T00:11:02.986Z,12.79
2018-06-23T00:12:02.955Z,12.85
2018-06-23T00:13:02.913Z,12.87
2018-06-23T00:14:02.896Z,12.72
2018-06-23T00:15:02.836Z,12.71
2018-06-23T00:16:02.789Z,12.72
2018-06-23T00:17:02.750Z,12.77
2018-06-23T00:18:02.712Z,12.65
2018-06-23T00:19:02.693Z,12.64
2018-06-23T00:20:02.638Z,12.64
2018-06-23T00:21:02.602Z,12.50
2018-06-23T00:22:02.559Z,12.52
2018-06-23T00:23:02.523Z,12.45
2018-06-23T00:24:02.499Z,12.39
2018-06-23T00:25:02.435Z,12.41
2018-06-23T00:26:02.400Z,12.34
2018-06-23T00:27:02.359Z,12.29
2018-06-23T00:28:02.315Z,12.27
2018-06-23T00:29:02.273Z,12.20
2018-06-23T00:30:02.257Z,12.14
2018-06-23T00:31:02.199Z,12.24
2018-06-23T00:32:02.162Z,12.23
2018-06-23T00:33:02.123Z,12.13
2018-06-23T00:34:02.082Z,12.13
2018-06-23T00:35:02.073Z,12.16
2018-06-23T00:36:01.996Z,12.04
2018-06-23T00:37:01.957Z,12.07
2018-06-23T00:38:01.915Z,11.96
2018-06-23T00:39:01.877Z,12.05
2018-06-23T00:40:01.846Z,12.05
2018-06-23T00:41:01.825Z,11.88
2018-06-23T00:42:01.757Z,12.09
2018-06-23T00:43:01.723Z,12.05
2018-06-23T00:44:01.696Z,11.95
2018-06-23T00:45:01.644Z,11.86
2018-06-23T00:46:01.628Z,11.99
2018-06-23T00:47:01.564Z,11.98
2018-06-23T00:48:01.517Z,11.94
2018-06-23T00:49:01.480Z,11.85
2018-06-23T00:50:01.455Z,11.94
2018-06-23T00:51:01.424Z,11.88
2018-06-23T00:52:01.364Z,11.86
2018-06-23T00:53:01.328Z,11.78
2018-06-23T00:54:01.285Z,11.73
2018-06-23T00:55:01.244Z,11.82
2018-06-23T00:56:01.225Z,11.78
2018-06-23T00:57:01.159Z,11.75
2018-06-23T00:58:01.126Z,11.76
2018-06-23T00:59:01.088Z,11.78
2018-06-23T01:00:01.040Z,11.72
2018-06-23T01:01:00.997Z,11.79
2018-06-23T01:02:00.980Z,11.72
2018-06-23T01:03:00.921Z,11.90
2018-06-23T01:04:00.886Z,11.76
2018-06-23T01:05:00.849Z,11.79
2018-06-23T01:06:00.836Z,11.76
2018-06-23T01:07:00.769Z,11.78
2018-06-23T01:08:00.718Z,11.79
2018-06-23T01:09:00.678Z,11.73
2018-06-23T01:10:00.641Z,11.75
2018-06-23T01:11:00.597Z,11.88
2018-06-23T01:12:00.587Z,11.73
2018-06-23T01:13:00.530Z,11.76
2018-06-23T01:14:00.478Z,11.76
2018-06-23T01:15:00.438Z,11.76
2018-06-23T01:16:00.431Z,11.72
2018-06-23T01:17:00.364Z,11.75
2018-06-23T01:18:00.329Z,11.82
2018-06-23T01:19:00.289Z,11.73
2018-06-23T01:20:00.236Z,11.75
2018-06-23T01:21:00.196Z,11.73
2018-06-23T01:22:00.181Z,11.75
2018-06-23T01:23:00.116Z,11.76
2018-06-23T01:24:00.089Z,11.76
2018-06-23T01:25:00.047Z,11.72
2018-06-23T01:26:00.028Z,11.65
2018-06-23T01:26:59.966Z,11.60
2018-06-23T01:27:59.917Z,11.61
2018-06-23T01:28:59.877Z,11.55
2018-06-23T01:29:59.843Z,11.58
2018-06-23T01:30:59.827Z,11.55
2018-06-23T01:31:59.756Z,11.54
2018-06-23T01:32:59.714Z,11.60
2018-06-23T01:33:59.676Z,11.60
2018-06-23T01:34:59.633Z,11.55
2018-06-23T01:35:59.626Z,11.47
2018-06-23T01:36:59.562Z,11.40
2018-06-23T01:37:59.524Z,11.43
2018-06-23T01:38:59.483Z,11.40
2018-06-23T01:39:59.434Z,11.42
2018-06-23T01:40:59.423Z,11.43
2018-06-23T01:41:59.353Z,11.29
2018-06-23T01:42:59.313Z,11.35
2018-06-23T01:43:59.279Z,11.33
2018-06-23T01:44:59.239Z,11.27
2018-06-23T01:45:59.192Z,11.24
2018-06-23T01:46:59.172Z,11.17
2018-06-23T01:47:59.120Z,11.14
2018-06-23T01:48:59.080Z,11.14
2018-06-23T01:49:59.040Z,11.10
2018-06-23T01:50:59.018Z,11.06
2018-06-23T01:51:58.953Z,11.00
2018-06-23T01:52:58.914Z,11.04
2018-06-23T01:53:58.871Z,11.00
2018-06-23T01:54:58.827Z,10.96
2018-06-23T01:55:58.819Z,10.99
2018-06-23T01:56:58.756Z,11.00
2018-06-23T01:57:58.718Z,10.97
2018-06-23T01:58:58.676Z,10.99
2018-06-23T01:59:58.628Z,10.96
2018-06-23T02:00:58.611Z,10.86
2018-06-23T02:01:58.553Z,10.94
2018-06-23T02:02:58.514Z,10.88
2018-06-23T02:03:58.465Z,10.85
2018-06-23T02:04:58.429Z,10.81
2018-06-23T02:05:58.412Z,10.81
2018-06-23T02:06:58.345Z,10.82
2018-06-23T02:07:58.312Z,10.81
2018-06-23T02:08:58.274Z,10.78
2018-06-23T02:09:58.233Z,10.84
2018-06-23T02:10:58.193Z,10.70
2018-06-23T02:11:58.166Z,10.78
2018-06-23T02:12:58.103Z,10.79
2018-06-23T02:13:58.061Z,10.78
2018-06-23T02:14:58.028Z,10.73
2018-06-23T02:15:58.013Z,10.73
2018-06-23T02:16:57.950Z,10.76
2018-06-23T02:17:57.903Z,10.78
2018-06-23T02:18:57.861Z,10.74
2018-06-23T02:19:57.828Z,10.73
2018-06-23T02:20:57.810Z,10.68
2018-06-23T02:21:57.792Z,10.61
2018-06-23T02:22:57.724Z,10.71
2018-06-23T02:23:57.660Z,10.66
2018-06-23T02:24:57.619Z,10.67
2018-06-23T02:25:57.607Z,10.59
2018-06-23T02:26:57.538Z,10.67
2018-06-23T02:27:57.505Z,10.63
2018-06-23T02:28:57.465Z,10.76
2018-06-23T02:29:57.424Z,10.63
2018-06-23T02:30:57.410Z,10.64
2018-06-23T02:31:57.337Z,10.66
2018-06-23T02:32:57.298Z,10.55
2018-06-23T02:33:57.260Z,10.56
2018-06-23T02:34:57.221Z,10.59
2018-06-23T02:35:57.173Z,10.44
2018-06-23T02:36:57.156Z,10.47
2018-06-23T02:37:57.091Z,10.48
2018-06-23T02:38:57.059Z,10.48
2018-06-23T02:39:57.015Z,10.48
2018-06-23T02:40:56.979Z,10.45
2018-06-23T02:41:56.960Z,10.36
2018-06-23T02:42:56.901Z,10.36
2018-06-23T02:43:56.848Z,10.34
2018-06-23T02:44:56.814Z,10.34
2018-06-23T02:45:56.769Z,10.34
2018-06-23T02:46:56.750Z,10.41
2018-06-23T02:47:56.695Z,10.29
2018-06-23T02:48:56.650Z,10.27
2018-06-23T02:49:56.612Z,10.25
2018-06-23T02:50:56.573Z,10.23
2018-06-23T02:51:56.559Z,10.23
2018-06-23T02:52:56.498Z,10.23
2018-06-23T02:53:56.448Z,10.22
2018-06-23T02:54:56.412Z,10.22
2018-06-23T02:55:56.364Z,10.25
2018-06-23T02:56:56.350Z,10.23
2018-06-23T02:57:56.284Z,10.22
2018-06-23T02:58:56.239Z,10.15
2018-06-23T02:59:56.208Z,10.20
2018-06-23T03:00:56.165Z,10.15
2018-06-23T03:01:56.133Z,10.12
2018-06-23T03:02:56.116Z,10.08
2018-06-23T03:03:56.043Z,10.09
2018-06-23T03:04:55.999Z,10.04
2018-06-23T03:05:55.970Z,10.11
2018-06-23T03:06:55.952Z,10.07
2018-06-23T03:07:55.880Z,10.08
2018-06-23T03:08:55.841Z,10.08
2018-06-23T03:09:55.799Z,9.99
2018-06-23T03:10:55.752Z,10.01
2018-06-23T03:11:55.740Z,10.01
2018-06-23T03:12:55.682Z,9.99
2018-06-23T03:13:55.636Z,9.97
2018-06-23T03:14:55.595Z,9.93
2018-06-23T03:15:55.558Z,9.90
2018-06-23T03:16:55.542Z,9.86
2018-06-23T03:17:55.472Z,10.02
2018-06-23T03:18:55.431Z,9.94
2018-06-23T03:19:55.394Z,9.96
2018-06-23T03:20:55.356Z,9.86
2018-06-23T03:21:55.308Z,9.90
2018-06-23T03:22:55.293Z,9.91
2018-06-23T03:23:55.233Z,9.87
2018-06-23T03:24:55.192Z,9.84
2018-06-23T03:25:55.151Z,9.81
2018-06-23T03:26:55.111Z,9.86
2018-06-23T03:27:55.089Z,9.83
2018-06-23T03:28:55.029Z,9.83
2018-06-23T03:29:54.984Z,9.71
2018-06-23T03:30:54.939Z,9.76
2018-06-23T03:31:54.910Z,9.83
2018-06-23T03:32:54.866Z,9.79
2018-06-23T03:33:54.847Z,9.76
2018-06-23T03:34:54.783Z,9.83
2018-06-23T03:35:54.740Z,9.83
2018-06-23T03:36:54.695Z,9.76
2018-06-23T03:37:54.663Z,9.74
2018-06-23T03:38:54.650Z,9.75
2018-06-23T03:39:54.572Z,9.79
2018-06-23T03:40:54.533Z,9.87
2018-06-23T03:41:54.504Z,9.75
2018-06-23T03:42:54.460Z,9.87
2018-06-23T03:43:54.543Z,9.83
2018-06-23T03:44:54.380Z,9.87
2018-06-23T03:45:54.335Z,9.87
2018-06-23T03:46:54.326Z,9.89
2018-06-23T03:47:54.249Z,9.75
2018-06-23T03:48:54.232Z,9.89
2018-06-23T03:49:54.166Z,9.90
2018-06-23T03:50:54.123Z,9.84
2018-06-23T03:51:54.090Z,9.86
2018-06-23T03:52:54.052Z,9.96
2018-06-23T03:53:54.266Z,9.96
2018-06-23T03:54:53.983Z,9.97
2018-06-23T03:55:53.942Z,9.93
2018-06-23T03:56:53.886Z,9.93
2018-06-23T03:57:53.851Z,9.94
2018-06-23T03:58:53.811Z,10.04
2018-06-23T03:59:53.777Z,9.96
2018-06-23T04:00:53.718Z,10.01
2018-06-23T04:01:53.677Z,10.08
2018-06-23T04:02:53.637Z,9.99
2018-06-23T04:03:53.601Z,10.02
2018-06-23T04:04:53.591Z,10.04
2018-06-23T04:05:53.520Z,10.08
2018-06-23T04:06:53.477Z,10.07
2018-06-23T04:07:53.431Z,10.07
2018-06-23T04:08:53.392Z,10.12
2018-06-23T04:09:53.359Z,10.11
2018-06-23T04:10:53.336Z,10.17
2018-06-23T04:11:53.268Z,10.27
2018-06-23T04:12:53.230Z,10.32
2018-06-23T04:13:53.190Z,10.25
2018-06-23T04:14:53.160Z,10.29
2018-06-23T04:15:53.137Z,10.32
2018-06-23T04:16:53.147Z,10.30
2018-06-23T04:17:53.034Z,10.36
2018-06-23T04:18:52.990Z,10.36
2018-06-23T04:19:52.945Z,10.33
2018-06-23T04:20:52.929Z,10.33
2018-06-23T04:21:52.861Z,10.29
2018-06-23T04:22:52.822Z,10.32
2018-06-23T04:23:52.792Z,10.30
2018-06-23T04:24:52.747Z,10.30
2018-06-23T04:25:52.704Z,10.29
2018-06-23T04:26:52.682Z,10.29
2018-06-23T04:27:52.626Z,10.32
2018-06-23T04:28:52.585Z,10.23
2018-06-23T04:29:52.547Z,10.30
2018-06-23T04:30:52.506Z,10.48
2018-06-23T04:31:52.476Z,10.81
2018-06-23T04:32:52.414Z,11.25
2018-06-23T04:33:52.376Z,11.60
2018-06-23T04:34:52.336Z,11.94
2018-06-23T04:35:52.302Z,12.53
2018-06-23T04:36:52.283Z,13.46
2018-06-23T04:37:52.224Z,14.21
2018-06-23T04:38:52.181Z,14.91
2018-06-23T04:39:52.132Z,15.49
2018-06-23T04:40:52.092Z,15.54
2018-06-23T04:41:52.087Z,15.10
2018-06-23T04:42:52.021Z,14.72
2018-06-23T04:43:51.974Z,14.37
2018-06-23T04:44:51.938Z,13.96
2018-06-23T04:45:51.893Z,13.79
2018-06-23T04:46:51.857Z,13.62
2018-06-23T04:47:51.847Z,13.39
2018-06-23T04:48:51.783Z,13.33
2018-06-23T04:49:51.746Z,13.15
2018-06-23T04:50:51.705Z,13.08
2018-06-23T04:51:51.658Z,12.95
2018-06-23T04:52:51.646Z,12.85
2018-06-23T04:53:51.580Z,12.87
2018-06-23T04:54:51.569Z,12.86
2018-06-23T04:55:51.512Z,12.92
2018-06-23T04:56:51.472Z,13.04
2018-06-23T04:57:51.427Z,13.01
2018-06-23T04:58:51.410Z,13.05
2018-06-23T04:59:51.384Z,13.08
2018-06-23T05:00:51.320Z,13.01
2018-06-23T05:01:51.278Z,13.00
2018-06-23T05:02:51.236Z,12.89
2018-06-23T05:03:51.223Z,12.83
2018-06-23T05:04:51.152Z,12.79
2018-06-23T05:05:51.113Z,12.85
2018-06-23T05:06:51.078Z,12.77
2018-06-23T05:07:51.042Z,12.70
2018-06-23T05:08:51.005Z,12.71
2018-06-23T05:09:50.992Z,12.70
2018-06-23T05:10:50.925Z,12.75
2018-06-23T05:11:50.884Z,12.82
2018-06-23T05:12:50.842Z,12.83
2018-06-23T05:13:50.810Z,12.90
2018-06-23T05:14:50.791Z,12.87
2018-06-23T05:15:50.726Z,12.83
2018-06-23T05:16:50.688Z,12.87
2018-06-23T05:17:50.669Z,12.87
2018-06-23T05:18:50.610Z,12.83
2018-06-23T05:19:50.603Z,12.89
2018-06-23T05:20:50.538Z,12.95
2018-06-23T05:21:50.497Z,13.05
2018-06-23T05:22:50.459Z,13.05
2018-06-23T05:23:50.416Z,13.04
2018-06-23T05:24:50.377Z,13.04
2018-06-23T05:25:50.360Z,13.17
2018-06-23T05:26:50.299Z,13.77
2018-06-23T05:27:50.270Z,14.00
2018-06-23T05:28:50.230Z,13.97
2018-06-23T05:29:50.184Z,13.96
2018-06-23T05:30:50.166Z,13.95
2018-06-23T05:31:50.156Z,13.77
2018-06-23T05:32:50.072Z,13.62
2018-06-23T05:33:50.035Z,13.55
2018-06-23T05:34:49.993Z,13.54
2018-06-23T05:35:49.972Z,13.54
2018-06-23T05:36:49.912Z,13.55
2018-06-23T05:37:49.916Z,13.45
2018-06-23T05:38:49.834Z,13.33
2018-06-23T05:39:49.805Z,13.14
2018-06-23T05:40:49.796Z,13.10
2018-06-23T05:41:49.726Z,13.07
2018-06-23T05:42:49.686Z,13.05
2018-06-23T05:43:49.642Z,13.05
2018-06-23T05:44:49.665Z,13.04
2018-06-23T05:45:49.572Z,13.05
2018-06-23T05:46:49.556Z,13.00
2018-06-23T05:47:49.487Z,13.07
2018-06-23T05:48:49.452Z,12.89
2018-06-23T05:49:49.414Z,12.87
2018-06-23T05:50:49.374Z,12.85
2018-06-23T05:51:49.364Z,12.96
2018-06-23T05:52:49.302Z,13.01
2018-06-23T05:53:49.263Z,12.97
2018-06-23T05:54:49.225Z,12.96
2018-06-23T05:55:49.178Z,13.01
2018-06-23T05:56:49.165Z,12.97
2018-06-23T05:57:49.100Z,12.97
2018-06-23T05:58:49.063Z,12.85
2018-06-23T05:59:49.031Z,12.87
2018-06-23T06:00:49.058Z,12.83
2018-06-23T06:01:48.947Z,12.87
2018-06-23T06:02:48.928Z,12.89
2018-06-23T06:03:48.882Z,12.93
2018-06-23T06:04:48.836Z,12.95
2018-06-23T06:05:48.799Z,12.92
2018-06-23T06:06:48.757Z,12.95
2018-06-23T06:07:48.735Z,12.87
2018-06-23T06:08:48.672Z,12.95
2018-06-23T06:09:48.637Z,12.86
2018-06-23T06:10:48.598Z,13.03
2018-06-23T06:11:48.631Z,13.00
2018-06-23T06:12:48.551Z,12.96
2018-06-23T06:13:48.487Z,13.00
2018-06-23T06:14:48.445Z,12.96
2018-06-23T06:15:48.401Z,13.01
2018-06-23T06:16:48.366Z,12.96
2018-06-23T06:17:48.358Z,12.96
2018-06-23T06:18:48.290Z,13.08
2018-06-23T06:19:48.249Z,13.05
2018-06-23T06:20:48.210Z,13.05
2018-06-23T06:21:48.168Z,13.12
2018-06-23T06:22:48.130Z,13.07
2018-06-23T06:23:48.182Z,13.05
2018-06-23T06:24:48.061Z,13.01
2018-06-23T06:25:48.021Z,13.01
2018-06-23T06:26:47.982Z,13.05
2018-06-23T06:27:47.937Z,13.04
2018-06-23T06:28:47.922Z,13.14
2018-06-23T06:29:47.860Z,13.26
2018-06-23T06:30:47.824Z,13.28
2018-06-23T06:31:47.785Z,13.29
2018-06-23T06:32:47.748Z,13.39
2018-06-23T06:33:47.726Z,13.51
2018-06-23T06:34:47.663Z,13.52
2018-06-23T06:35:47.631Z,13.54
2018-06-23T06:36:47.592Z,13.59
2018-06-23T06:37:47.553Z,13.64
2018-06-23T06:38:47.536Z,13.52
2018-06-23T06:39:47.469Z,13.52
2018-06-23T06:40:47.431Z,13.48
2018-06-23T06:41:47.392Z,13.42
2018-06-23T06:42:47.351Z,13.51
2018-06-23T06:43:47.346Z,13.41
2018-06-23T06:44:47.282Z,13.36
2018-06-23T06:45:47.243Z,13.32
2018-06-23T06:46:47.205Z,13.38
2018-06-23T06:47:47.158Z,13.29
2018-06-23T06:48:47.119Z,13.22
2018-06-23T06:49:47.110Z,13.22
2018-06-23T06:50:47.049Z,13.28
2018-06-23T06:51:47.003Z,13.29
2018-06-23T06:52:46.964Z,13.30
2018-06-23T06:53:46.925Z,13.33
2018-06-23T06:54:46.905Z,13.51
2018-06-23T06:55:46.852Z,13.51
2018-06-23T06:56:46.814Z,13.44
2018-06-23T06:57:46.780Z,13.49
2018-06-23T06:58:46.739Z,13.57
2018-06-23T06:59:46.717Z,13.54
2018-06-23T07:00:46.651Z,13.38
2018-06-23T07:01:46.613Z,13.10
2018-06-23T07:02:46.573Z,13.10
2018-06-23T07:03:46.542Z,13.01
2018-06-23T07:04:46.503Z,13.17
2018-06-23T07:05:46.476Z,13.25
2018-06-23T07:06:46.416Z,13.30
2018-06-23T07:07:46.387Z,13.46
2018-06-23T07:08:46.354Z,13.48
2018-06-23T07:09:46.308Z,13.36
2018-06-23T07:10:46.290Z,13.44
2018-06-23T07:11:46.223Z,13.60
2018-06-23T07:12:46.183Z,13.71
2018-06-23T07:13:46.148Z,14.10
2018-06-23T07:14:46.108Z,14.21
2018-06-23T07:15:46.099Z,14.43
2018-06-23T07:16:46.038Z,14.64
2018-06-23T07:17:45.999Z,14.94
2018-06-23T07:18:45.959Z,15.31
2018-06-23T07:19:45.915Z,15.49
2018-06-23T07:20:45.906Z,15.93
2018-06-23T07:21:45.866Z,16.71
2018-06-23T07:22:45.805Z,17.03
2018-06-23T07:23:45.861Z,17.33
2018-06-23T07:24:45.724Z,17.11
2018-06-23T07:25:45.688Z,16.75
2018-06-23T07:26:45.716Z,17.21
2018-06-23T07:27:45.617Z,17.56
2018-06-23T07:28:45.580Z,17.68
2018-06-23T07:29:45.545Z,17.54
2018-06-23T07:30:45.556Z,17.64
2018-06-23T07:31:45.495Z,17.43
2018-06-23T07:32:45.426Z,17.40
2018-06-23T07:33:45.398Z,17.08
2018-06-23T07:34:45.480Z,16.82
2018-06-23T07:35:45.326Z,16.81
2018-06-23T07:36:45.317Z,16.70
2018-06-23T07:37:45.249Z,16.78
2018-06-23T07:38:45.209Z,16.76
2018-06-23T07:39:45.191Z,16.86
2018-06-23T07:40:45.207Z,16.86
2018-06-23T07:41:45.112Z,17.04
2018-06-23T07:42:45.096Z,17.03
2018-06-23T07:43:45.031Z,16.85
2018-06-23T07:44:45.001Z,16.85
2018-06-23T07:45:44.960Z,16.83
2018-06-23T07:46:44.925Z,16.71
2018-06-23T07:47:44.920Z,16.70
2018-06-23T07:48:44.868Z,16.82
2018-06-23T07:49:44.828Z,16.83
2018-06-23T07:50:44.790Z,17.12
2018-06-23T07:51:44.746Z,17.15
2018-06-23T07:52:44.736Z,17.28
2018-06-23T07:53:44.685Z,17.37
2018-06-23T07:54:44.647Z,17.16
2018-06-23T07:55:44.607Z,17.15
2018-06-23T07:56:44.598Z,17.07
2018-06-23T07:57:44.558Z,17.16
2018-06-23T07:58:44.508Z,17.21
2018-06-23T07:59:44.475Z,17.21
2018-06-23T08:00:44.437Z,17.59
2018-06-23T08:01:44.604Z,18.00
2018-06-23T08:02:44.392Z,18.69
2018-06-23T08:03:44.322Z,19.28
2018-06-23T08:04:44.286Z,19.54
2018-06-23T08:05:44.254Z,19.46
2018-06-23T08:06:44.225Z,19.22
2018-06-23T08:07:44.222Z,19.50
2018-06-23T08:08:44.152Z,19.54
2018-06-23T08:09:44.116Z,19.68
2018-06-23T08:10:44.079Z,19.59
2018-06-23T08:11:44.108Z,19.29
2018-06-23T08:12:44.040Z,19.40
2018-06-23T08:13:43.997Z,19.16
2018-06-23T08:14:43.949Z,18.85
2018-06-23T08:15:43.923Z,18.55
2018-06-23T08:16:43.877Z,18.51
2018-06-23T08:17:43.836Z,18.33
2018-06-23T08:18:43.824Z,18.30
2018-06-23T08:19:43.776Z,18.41
2018-06-23T08:20:43.746Z,19.16
2018-06-23T08:21:43.708Z,19.80
2018-06-23T08:22:43.673Z,20.39
2018-06-23T08:23:43.667Z,20.01
2018-06-23T08:24:43.600Z,19.74
2018-06-23T08:25:43.577Z,19.63
2018-06-23T08:26:43.618Z,19.48
2018-06-23T08:27:43.500Z,19.77
2018-06-23T08:28:43.492Z,19.50
2018-06-23T08:29:43.430Z,19.18
2018-06-23T08:30:43.398Z,19.00
2018-06-23T08:31:43.429Z,18.98
2018-06-23T08:32:43.338Z,18.82
2018-06-23T08:33:43.304Z,18.85
2018-06-23T08:34:43.292Z,18.51
2018-06-23T08:35:43.231Z,18.26
2018-06-23T08:36:43.193Z,18.02
2018-06-23T08:37:43.238Z,17.77
2018-06-23T08:38:43.169Z,17.48
2018-06-23T08:39:43.125Z,17.15
2018-06-23T08:40:43.065Z,17.03
2018-06-23T08:41:43.021Z,16.85
2018-06-23T08:42:42.987Z,16.60
2018-06-23T08:43:43.021Z,16.53
2018-06-23T08:44:42.945Z,16.46
2018-06-23T08:45:42.888Z,16.45
2018-06-23T08:46:42.854Z,16.38
2018-06-23T08:47:42.818Z,16.17
2018-06-23T08:48:42.775Z,16.11
2018-06-23T08:49:42.769Z,16.17
2018-06-23T08:50:42.707Z,16.11
2018-06-23T08:51:42.675Z,16.04
2018-06-23T08:52:42.687Z,15.96
2018-06-23T08:53:42.606Z,15.94
2018-06-23T08:54:42.570Z,16.09
2018-06-23T08:55:42.546Z,16.42
2018-06-23T08:56:42.490Z,16.50
2018-06-23T08:57:42.462Z,16.79
2018-06-23T08:58:42.423Z,17.23
2018-06-23T08:59:42.378Z,17.68
2018-06-23T09:00:42.375Z,18.37
2018-06-23T09:01:42.321Z,18.88
2018-06-23T09:02:42.319Z,18.70
2018-06-23T09:03:42.238Z,18.66
2018-06-23T09:04:42.207Z,18.72
2018-06-23T09:05:42.196Z,18.54
2018-06-23T09:06:42.131Z,18.70
2018-06-23T09:07:42.091Z,18.57
2018-06-23T09:08:42.055Z,18.44
2018-06-23T09:09:42.020Z,18.30
2018-06-23T09:10:41.983Z,18.23
2018-06-23T09:11:41.978Z,18.08
2018-06-23T09:12:41.921Z,17.79
2018-06-23T09:13:41.910Z,17.58
2018-06-23T09:14:41.842Z,17.38
2018-06-23T09:15:41.814Z,17.16
2018-06-23T09:16:41.809Z,16.79
2018-06-23T09:17:41.744Z,16.75
2018-06-23T09:18:41.708Z,16.68
2018-06-23T09:19:41.810Z,16.57
2018-06-23T09:20:41.629Z,16.58
2018-06-23T09:21:41.615Z,16.43
2018-06-23T09:22:41.559Z,16.43
2018-06-23T09:23:41.532Z,16.34
2018-06-23T09:24:41.491Z,16.38
2018-06-23T09:25:41.456Z,16.33
2018-06-23T09:26:41.446Z,16.23
2018-06-23T09:27:41.383Z,16.21
2018-06-23T09:28:41.338Z,16.12
2018-06-23T09:29:41.312Z,16.09
2018-06-23T09:30:41.276Z,15.93
2018-06-23T09:31:41.229Z,16.00
2018-06-23T09:32:41.218Z,16.17
2018-06-23T09:33:41.158Z,16.20
2018-06-23T09:34:41.118Z,16.52
2018-06-23T09:35:41.087Z,17.16
2018-06-23T09:36:41.060Z,17.52
2018-06-23T09:37:41.037Z,17.84
2018-06-23T09:38:41.039Z,17.90
2018-06-23T09:39:40.936Z,17.93
2018-06-23T09:40:40.900Z,18.15
2018-06-23T09:41:40.863Z,18.25
2018-06-23T09:42:40.852Z,18.29
2018-06-23T09:43:40.795Z,18.35
2018-06-23T09:44:40.763Z,18.33
2018-06-23T09:45:40.721Z,18.35
2018-06-23T09:46:40.681Z,18.32
2018-06-23T09:47:40.652Z,18.37
2018-06-23T09:48:40.639Z,18.26
2018-06-23T09:49:40.583Z,18.30
2018-06-23T09:50:40.546Z,18.29
2018-06-23T09:51:40.507Z,17.97
2018-06-23T09:52:40.466Z,17.82
2018-06-23T09:53:40.500Z,17.77
2018-06-23T09:54:40.396Z,17.64
2018-06-23T09:55:40.373Z,17.44
2018-06-23T09:56:40.337Z,17.34
2018-06-23T09:57:40.297Z,17.21
2018-06-23T09:58:40.284Z,17.03
2018-06-23T09:59:40.220Z,16.93
2018-06-23T10:00:40.181Z,16.96
2018-06-23T10:01:40.156Z,16.86
2018-06-23T10:02:40.114Z,16.85
2018-06-23T10:03:40.104Z,16.88
2018-06-23T10:04:40.039Z,16.71
2018-06-23T10:05:40.030Z,16.58
2018-06-23T10:06:39.963Z,16.52
2018-06-23T10:07:39.937Z,16.56
2018-06-23T10:08:39.938Z,16.56
2018-06-23T10:09:39.891Z,16.58
2018-06-23T10:10:39.825Z,16.56
2018-06-23T10:11:39.783Z,16.68
2018-06-23T10:12:39.750Z,16.75
2018-06-23T10:13:39.716Z,16.86
2018-06-23T10:14:39.696Z,16.79
2018-06-23T10:15:39.642Z,16.94
2018-06-23T10:16:39.606Z,17.04
2018-06-23T10:17:39.564Z,17.15
2018-06-23T10:18:39.527Z,17.44
2018-06-23T10:19:39.524Z,17.54
2018-06-23T10:20:39.461Z,17.56
2018-06-23T10:21:39.427Z,17.71
2018-06-23T10:22:39.385Z,17.68
2018-06-23T10:23:39.346Z,17.64
2018-06-23T10:24:39.331Z,17.63
2018-06-23T10:25:39.296Z,17.63
2018-06-23T10:26:39.233Z,17.68
2018-06-23T10:27:39.235Z,17.54
2018-06-23T10:28:39.169Z,17.26
2018-06-23T10:29:39.134Z,17.30
2018-06-23T10:30:39.118Z,17.33
2018-06-23T10:31:39.055Z,17.28
2018-06-23T10:32:39.040Z,17.07
2018-06-23T10:33:38.988Z,17.16
2018-06-23T10:34:38.952Z,17.28
2018-06-23T10:35:38.929Z,17.48
2018-06-23T10:36:38.872Z,17.79
2018-06-23T10:37:38.840Z,17.89
2018-06-23T10:38:38.863Z,18.07
2018-06-23T10:39:38.785Z,18.07
2018-06-23T10:40:38.762Z,17.99
2018-06-23T10:41:38.700Z,18.02
2018-06-23T10:42:38.661Z,18.05
2018-06-23T10:43:38.622Z,17.97
2018-06-23T10:44:38.585Z,18.02
2018-06-23T10:45:38.548Z,17.99
2018-06-23T10:46:38.537Z,18.05
2018-06-23T10:47:38.489Z,17.92
2018-06-23T10:48:38.447Z,18.00
2018-06-23T10:49:38.409Z,18.08
2018-06-23T10:50:38.369Z,18.20
2018-06-23T10:51:38.366Z,18.27
2018-06-23T10:52:38.303Z,18.37
2018-06-23T10:53:38.268Z,18.55
2018-06-23T10:54:38.233Z,18.73
2018-06-23T10:55:38.188Z,18.94
2018-06-23T10:56:38.184Z,18.88
2018-06-23T10:57:38.118Z,19.04
2018-06-23T10:58:38.082Z,19.13
2018-06-23T10:59:38.057Z,19.18
2018-06-23T11:00:38.022Z,19.23
2018-06-23T11:01:37.993Z,19.22
2018-06-23T11:02:37.977Z,19.29
2018-06-23T11:03:37.911Z,19.51
2018-06-23T11:04:37.944Z,19.58
2018-06-23T11:05:37.867Z,19.41
2018-06-23T11:06:37.811Z,19.29
2018-06-23T11:07:37.795Z,19.14
2018-06-23T11:08:37.741Z,19.06
2018-06-23T11:09:37.698Z,19.16
2018-06-23T11:10:37.664Z,18.94
2018-06-23T11:11:37.638Z,18.90
2018-06-23T11:12:37.627Z,18.67
2018-06-23T11:13:37.572Z,18.42
2018-06-23T11:14:37.536Z,18.45
2018-06-23T11:15:37.494Z,18.48
2018-06-23T11:16:37.459Z,18.45
2018-06-23T11:17:37.452Z,18.36
2018-06-23T11:18:37.389Z,18.23
2018-06-23T11:19:37.359Z,18.17
2018-06-23T11:20:37.329Z,17.93
2018-06-23T11:21:37.283Z,17.84
2018-06-23T11:22:37.249Z,17.81
2018-06-23T11:23:37.242Z,17.86
2018-06-23T11:24:37.279Z,17.84
2018-06-23T11:25:37.151Z,17.90
2018-06-23T11:26:37.117Z,17.77
2018-06-23T11:27:37.078Z,17.64
2018-06-23T11:28:37.058Z,17.70
2018-06-23T11:29:37.002Z,17.58
2018-06-23T11:30:36.966Z,17.64
2018-06-23T11:31:36.939Z,17.78
2018-06-23T11:32:36.900Z,17.82
2018-06-23T11:33:36.893Z,17.95
2018-06-23T11:34:36.826Z,17.95
2018-06-23T11:35:36.792Z,17.92
2018-06-23T11:36:36.751Z,17.89
2018-06-23T11:37:36.726Z,17.92
2018-06-23T11:38:36.683Z,17.95
2018-06-23T11:39:36.663Z,17.93
2018-06-23T11:40:36.608Z,17.95
2018-06-23T11:41:36.569Z,17.96
2018-06-23T11:42:36.543Z,17.81
2018-06-23T11:43:36.505Z,17.81
2018-06-23T11:44:36.493Z,17.66
2018-06-23T11:45:36.432Z,17.68
2018-06-23T11:46:36.443Z,17.72
2018-06-23T11:47:36.356Z,17.63
2018-06-23T11:48:36.318Z,17.66
2018-06-23T11:49:36.305Z,17.59
2018-06-23T11:50:36.249Z,17.63
2018-06-23T11:51:36.216Z,17.62
2018-06-23T11:52:36.180Z,17.54
2018-06-23T11:53:36.141Z,17.49
2018-06-23T11:54:36.123Z,17.49
2018-06-23T11:55:36.070Z,17.37
2018-06-23T11:56:36.034Z,17.40
2018-06-23T11:57:35.998Z,17.21
2018-06-23T11:58:35.965Z,17.08
2018-06-23T11:59:35.946Z,17.11
2018-06-23T12:00:35.882Z,17.18
2018-06-23T12:01:35.849Z,17.26
2018-06-23T12:02:35.812Z,17.44
2018-06-23T12:03:35.781Z,17.66
2018-06-23T12:04:35.744Z,17.82
2018-06-23T12:05:35.733Z,18.03
2018-06-23T12:06:35.673Z,18.44
2018-06-23T12:07:35.626Z,18.66
2018-06-23T12:08:35.595Z,18.87
2018-06-23T12:09:35.590Z,19.11
2018-06-23T12:10:35.531Z,19.07
2018-06-23T12:11:35.482Z,19.28
2018-06-23T12:12:35.458Z,19.47
2018-06-23T12:13:35.417Z,19.47
2018-06-23T12:14:35.378Z,19.46
2018-06-23T12:15:35.374Z,19.58
2018-06-23T12:16:35.314Z,19.69
2018-06-23T12:17:35.279Z,19.74
2018-06-23T12:18:35.243Z,19.94
2018-06-23T12:19:35.201Z,19.91
2018-06-23T12:20:35.189Z,20.01
2018-06-23T12:21:35.131Z,20.18
2018-06-23T12:22:35.102Z,20.24
2018-06-23T12:23:35.069Z,20.35
2018-06-23T12:24:35.038Z,20.33
2018-06-23T12:25:35.015Z,20.41
2018-06-23T12:26:34.960Z,20.31
2018-06-23T12:27:34.936Z,20.41
2018-06-23T12:28:34.900Z,20.38
2018-06-23T12:29:34.876Z,20.38
2018-06-23T12:30:34.859Z,20.08
2018-06-23T12:31:34.791Z,20.08
2018-06-23T12:32:34.762Z,19.92
2018-06-23T12:33:34.723Z,20.02
2018-06-23T12:34:34.691Z,19.98
2018-06-23T12:35:34.662Z,19.91
2018-06-23T12:36:34.654Z,20.08
2018-06-23T12:37:34.599Z,19.94
2018-06-23T12:38:34.563Z,19.95
2018-06-23T12:39:34.520Z,19.98
2018-06-23T12:40:34.486Z,20.03
2018-06-23T12:41:34.529Z,20.03
2018-06-23T12:42:34.429Z,20.14
2018-06-23T12:43:34.384Z,20.28
2018-06-23T12:44:34.353Z,20.29
2018-06-23T12:45:34.319Z,20.29
2018-06-23T12:46:34.313Z,20.43
2018-06-23T12:47:34.264Z,20.70
2018-06-23T12:48:34.244Z,20.58
2018-06-23T12:49:34.197Z,20.73
2018-06-23T12:50:34.161Z,20.99
2018-06-23T12:51:34.121Z,20.89
2018-06-23T12:52:34.112Z,21.03
2018-06-23T12:53:34.058Z,20.70